Time;durP1;ratioP1;P1;durP2;ratioP2;P2;SDS_P1;SDS_P2;PMS_P1;PMS_P2;Temp;Humidity;BMP_temperature;BMP_pressure;BME280_temperature;BME280_humidity;BME280_pressure;Samples;Min_cycle;Max_cycle;Signal;HPM_P1;HPM_P2
2023/09/17 00:01:16;;;;;;;7.77;7.03;;;18.70;99.90;;;;;;4972589;28;20283;-53
2023/09/17 00:03:44;;;;;;;6.30;5.77;;;18.70;99.90;;;;;;4969851;28;20204;-53
2023/09/17 00:06:11;;;;;;;6.90;6.40;;;18.80;99.90;;;;;;4972911;28;20204;-53
2023/09/17 00:08:39;;;;;;;5.83;5.33;;;18.70;99.90;;;;;;4968592;28;20232;-53
2023/09/17 00:11:08;;;;;;;5.00;4.57;;;18.70;99.90;;;;;;4967151;28;20220;-53
2023/09/17 00:13:37;;;;;;;5.87;5.37;;;18.70;99.90;;;;;;4972498;28;20235;-53
2023/09/17 00:16:04;;;;;;;4.93;4.63;;;18.70;99.90;;;;;;4972766;28;20240;-53
2023/09/17 00:18:31;;;;;;;5.33;4.87;;;18.70;99.90;;;;;;4973190;28;20291;-53
2023/09/17 00:20:58;;;;;;;6.23;5.17;;;18.80;99.90;;;;;;4973389;28;20225;-54
2023/09/17 00:23:25;;;;;;;5.23;4.93;;;18.70;99.90;;;;;;4971221;28;20208;-53
2023/09/17 00:25:53;;;;;;;6.07;5.47;;;18.70;99.90;;;;;;4971234;28;20201;-53
2023/09/17 00:28:20;;;;;;;4.90;4.50;;;18.70;99.90;;;;;;4965318;28;20205;-54
2023/09/17 00:30:48;;;;;;;5.10;4.67;;;18.60;99.90;;;;;;4973057;28;20279;-53
2023/09/17 00:33:15;;;;;;;5.67;5.30;;;18.60;99.90;;;;;;4968298;28;20208;-54
2023/09/17 00:35:42;;;;;;;6.67;4.73;;;18.50;99.90;;;;;;4963195;28;20207;-53
2023/09/17 00:38:09;;;;;;;5.93;5.63;;;18.40;99.90;;;;;;4970258;28;20200;-53
2023/09/17 00:40:37;;;;;;;5.73;5.43;;;18.40;99.90;;;;;;4978094;28;20274;-53
2023/09/17 00:43:06;;;;;;;5.47;5.07;;;18.30;99.90;;;;;;4969695;28;20207;-53
2023/09/17 00:45:33;;;;;;;6.13;4.73;;;18.30;99.90;;;;;;4979425;28;20205;-53
2023/09/17 00:48:01;;;;;;;6.57;5.20;;;18.30;99.90;;;;;;4980143;28;20201;-54
2023/09/17 00:50:31;;;;;;;5.93;5.63;;;18.30;99.90;;;;;;4981252;28;20699;-53
2023/09/17 00:52:58;;;;;;;5.30;5.00;;;18.30;99.90;;;;;;4979832;28;20201;-53
2023/09/17 00:55:28;;;;;;;5.00;4.70;;;18.30;99.90;;;;;;4964886;28;20200;-53
2023/09/17 00:57:55;;;;;;;5.67;5.30;;;18.30;99.90;;;;;;4971251;28;20204;-54
2023/09/17 01:00:24;;;;;;;6.07;5.67;;;18.30;99.90;;;;;;4971849;28;20231;-53
2023/09/17 01:02:51;;;;;;;6.87;6.20;;;18.30;99.90;;;;;;4972800;28;20569;-54
2023/09/17 01:05:19;;;;;;;5.80;5.47;;;18.40;99.90;;;;;;4971928;28;20204;-53
2023/09/17 01:07:47;;;;;;;6.83;6.27;;;18.40;99.90;;;;;;4972335;28;20204;-53
2023/09/17 01:10:14;;;;;;;6.40;5.93;;;18.40;99.90;;;;;;4972366;28;20275;-53
2023/09/17 01:12:42;;;;;;;6.70;6.27;;;18.40;99.90;;;;;;4975015;28;20647;-53
2023/09/17 01:15:10;;;;;;;7.77;7.13;;;18.50;99.90;;;;;;4967599;28;20288;-53
2023/09/17 01:17:38;;;;;;;7.33;6.67;;;18.40;99.90;;;;;;4968082;28;20209;-53
2023/09/17 01:20:24;;;;;;;6.53;5.93;;;18.40;99.90;;;;;;4971282;28;20727;-53
2023/09/17 01:22:55;;;;;;;7.73;7.13;;;18.40;99.90;;;;;;4972169;28;20205;-53
2023/09/17 01:25:35;;;;;;;7.40;6.83;;;18.40;99.90;;;;;;4970599;28;20209;-53
2023/09/17 01:28:05;;;;;;;7.30;6.80;;;18.40;99.90;;;;;;4976935;28;20208;-53
2023/09/17 01:30:32;;;;;;;7.03;6.63;;;18.40;99.90;;;;;;4982472;28;20813;-53
2023/09/17 01:33:01;;;;;;;7.53;6.93;;;18.40;99.90;;;;;;4976327;28;20200;-53
2023/09/17 01:35:29;;;;;;;7.73;7.13;;;18.30;99.90;;;;;;4983128;28;20474;-54
2023/09/17 01:38:02;;;;;;;7.80;7.17;;;18.30;99.90;;;;;;4982872;28;20264;-53
2023/09/17 01:40:30;;;;;;;7.23;6.80;;;18.40;99.90;;;;;;4971144;28;20783;-53
2023/09/17 01:43:00;;;;;;;6.43;6.00;;;18.40;99.90;;;;;;4974437;28;20241;-53
2023/09/17 01:45:30;;;;;;;7.93;7.23;;;18.40;99.90;;;;;;4982352;28;20208;-53
2023/09/17 01:47:59;;;;;;;8.30;7.47;;;18.30;99.90;;;;;;4974626;28;20207;-54
2023/09/17 01:50:26;;;;;;;8.43;7.70;;;18.30;99.90;;;;;;4981991;28;20682;-53
2023/09/17 01:52:54;;;;;;;7.03;6.40;;;18.30;99.90;;;;;;4978593;28;20208;-53
2023/09/17 01:55:22;;;;;;;6.87;6.37;;;18.40;99.90;;;;;;4969060;28;20200;-53
2023/09/17 01:57:49;;;;;;;8.07;7.37;;;18.40;99.90;;;;;;4970845;28;20205;-54
2023/09/17 02:00:16;;;;;;;8.17;7.47;;;18.40;99.90;;;;;;4982684;28;20711;-53
2023/09/17 02:02:48;;;;;;;8.07;7.47;;;18.40;99.90;;;;;;4983600;28;20291;-53
2023/09/17 02:05:16;;;;;;;7.83;7.30;;;18.40;99.90;;;;;;4984918;28;20821;-53
2023/09/17 02:07:43;;;;;;;8.47;7.70;;;18.40;99.90;;;;;;4986337;28;20211;-53
2023/09/17 02:10:10;;;;;;;7.70;7.00;;;18.30;99.90;;;;;;4982953;28;20197;-53
2023/09/17 02:12:38;;;;;;;7.43;6.93;;;18.30;99.90;;;;;;4976159;28;20224;-54
2023/09/17 02:15:09;;;;;;;7.67;6.90;;;18.30;99.90;;;;;;4975083;28;20213;-53
2023/09/17 02:17:36;;;;;;;7.87;7.27;;;18.30;99.90;;;;;;4989883;28;20587;-53
2023/09/17 02:20:08;;;;;;;8.30;7.60;;;18.30;99.90;;;;;;4976859;28;20303;-53
2023/09/17 02:22:35;;;;;;;7.53;7.07;;;18.40;99.90;;;;;;4964660;28;20233;-54
2023/09/17 02:25:03;;;;;;;8.30;7.63;;;18.40;99.90;;;;;;4964859;28;20264;-53
2023/09/17 02:27:30;;;;;;;8.13;7.50;;;18.40;99.90;;;;;;4972387;28;20345;-54
2023/09/17 02:29:56;;;;;;;8.40;7.87;;;18.40;99.90;;;;;;4975158;28;20630;-53
2023/09/17 02:32:24;;;;;;;9.20;7.70;;;18.40;99.90;;;;;;4966921;28;20326;-53
2023/09/17 02:34:50;;;;;;;8.23;7.63;;;18.40;99.90;;;;;;4974418;28;20200;-53
2023/09/17 02:37:19;;;;;;;8.73;8.03;;;18.40;99.90;;;;;;4974519;28;20213;-53
2023/09/17 02:39:46;;;;;;;9.80;9.00;;;18.40;99.90;;;;;;4974888;28;20767;-53
2023/09/17 02:42:13;;;;;;;8.70;7.90;;;18.30;99.90;;;;;;4974743;28;20225;-54
2023/09/17 02:44:40;;;;;;;7.80;7.30;;;18.30;99.90;;;;;;4974918;28;20732;-53
2023/09/17 02:47:07;;;;;;;7.87;7.10;;;18.30;99.90;;;;;;4974661;28;20204;-53
2023/09/17 02:49:34;;;;;;;7.80;7.20;;;18.30;99.90;;;;;;4974940;28;20277;-53
2023/09/17 02:52:01;;;;;;;7.53;6.97;;;18.30;99.90;;;;;;4972213;28;20280;-53
2023/09/17 02:54:29;;;;;;;7.33;6.83;;;18.40;99.90;;;;;;4972809;28;20306;-53
2023/09/17 02:56:56;;;;;;;6.73;6.37;;;18.40;99.90;;;;;;4974322;28;20204;-53
2023/09/17 02:59:23;;;;;;;6.70;6.30;;;18.40;99.90;;;;;;4974829;28;20298;-53
2023/09/17 03:01:50;;;;;;;7.90;7.40;;;18.30;99.90;;;;;;4974638;28;20220;-53
2023/09/17 03:04:17;;;;;;;7.17;6.57;;;18.30;99.90;;;;;;4974436;28;20208;-53
2023/09/17 03:06:44;;;;;;;6.70;6.13;;;18.30;99.90;;;;;;4970492;28;20628;-53
2023/09/17 03:09:11;;;;;;;7.17;6.67;;;18.30;99.90;;;;;;4968657;28;20283;-53
2023/09/17 03:11:40;;;;;;;8.70;7.80;;;18.30;99.90;;;;;;4971928;28;20227;-53
2023/09/17 03:14:07;;;;;;;8.83;8.03;;;18.30;99.90;;;;;;4973569;28;21291;-53
2023/09/17 03:16:34;;;;;;;8.57;7.90;;;18.30;99.90;;;;;;4976980;28;20298;-53
2023/09/17 03:19:02;;;;;;;7.50;6.97;;;18.20;99.90;;;;;;4994013;28;20207;-53
2023/09/17 03:21:29;;;;;;;8.17;7.47;;;18.20;99.90;;;;;;4992973;28;20282;-53
2023/09/17 03:23:56;;;;;;;7.47;6.87;;;18.20;99.90;;;;;;4980218;28;20238;-53
2023/09/17 03:26:23;;;;;;;8.00;7.40;;;18.20;99.90;;;;;;4975152;28;20207;-53
2023/09/17 03:28:51;;;;;;;6.97;6.40;;;18.30;99.90;;;;;;4985818;28;20283;-53
2023/09/17 03:31:18;;;;;;;7.47;6.83;;;18.30;99.90;;;;;;4993678;28;20231;-53
2023/09/17 03:33:45;;;;;;;6.40;5.80;;;18.30;99.90;;;;;;4991786;28;20294;-53
2023/09/17 03:36:12;;;;;;;6.87;6.37;;;18.30;99.90;;;;;;4985061;28;20204;-53
2023/09/17 03:38:39;;;;;;;6.60;6.10;;;18.30;99.90;;;;;;4993806;28;20679;-53
2023/09/17 03:41:06;;;;;;;6.23;5.83;;;18.30;99.90;;;;;;4972534;28;20229;-53
2023/09/17 03:43:34;;;;;;;5.47;5.07;;;18.20;99.90;;;;;;4964971;28;20668;-53
2023/09/17 03:46:03;;;;;;;6.57;5.47;;;18.20;99.90;;;;;;4971487;28;20208;-53
2023/09/17 03:48:30;;;;;;;5.73;5.30;;;18.20;99.90;;;;;;4972171;28;20208;-53
2023/09/17 03:50:58;;;;;;;5.83;5.43;;;18.10;99.90;;;;;;4972425;28;20291;-53
2023/09/17 03:53:25;;;;;;;5.30;4.77;;;18.10;99.90;;;;;;4965532;28;20215;-53
2023/09/17 03:55:53;;;;;;;4.53;4.20;;;18.10;99.90;;;;;;4971786;28;20232;-53
2023/09/17 03:58:21;;;;;;;4.20;4.00;;;18.10;99.90;;;;;;4970326;28;20277;-53
2023/09/17 04:00:49;;;;;;;3.70;3.60;;;18.10;99.90;;;;;;4966894;28;20224;-53
2023/09/17 04:03:19;;;;;;;3.53;3.27;;;18.20;99.90;;;;;;4968720;28;20623;-53
2023/09/17 04:05:47;;;;;;;3.80;3.60;;;18.20;99.90;;;;;;4966798;28;20208;-53
2023/09/17 04:08:15;;;;;;;3.57;3.23;;;18.20;99.90;;;;;;4967723;28;20540;-53
2023/09/17 04:10:42;;;;;;;3.40;3.20;;;18.20;99.90;;;;;;4972110;28;20197;-53
2023/09/17 04:13:09;;;;;;;3.40;3.30;;;18.10;99.90;;;;;;4968943;28;20256;-53
2023/09/17 04:15:37;;;;;;;3.53;3.33;;;18.10;99.90;;;;;;4967243;28;20274;-53
2023/09/17 04:18:05;;;;;;;3.97;3.67;;;18.10;99.90;;;;;;4968968;28;20205;-53
2023/09/17 04:20:34;;;;;;;3.23;3.03;;;18.10;99.90;;;;;;4971511;28;20608;-53
2023/09/17 04:23:02;;;;;;;5.30;3.43;;;18.10;99.90;;;;;;4961907;28;20243;-53
2023/09/17 04:25:29;;;;;;;5.63;5.30;;;18.00;99.90;;;;;;4967390;28;20204;-53
2023/09/17 04:27:56;;;;;;;5.80;5.47;;;18.00;99.90;;;;;;4969352;28;20645;-53
2023/09/17 04:30:23;;;;;;;4.77;4.47;;;18.00;99.90;;;;;;4964295;28;20213;-53
2023/09/17 04:32:52;;;;;;;4.37;4.17;;;18.10;99.90;;;;;;4971108;28;20358;-53
2023/09/17 04:35:19;;;;;;;5.00;4.70;;;18.10;99.90;;;;;;4971378;28;20231;-53
2023/09/17 04:37:49;;;;;;;5.03;4.73;;;18.00;99.90;;;;;;4970001;28;20200;-53
2023/09/17 04:40:17;;;;;;;4.40;4.20;;;18.00;99.90;;;;;;4970747;28;20303;-53
2023/09/17 04:42:45;;;;;;;4.10;3.90;;;18.00;99.90;;;;;;4972756;28;20766;-53
2023/09/17 04:45:16;;;;;;;4.07;3.87;;;18.00;99.90;;;;;;4972233;28;20266;-53
2023/09/17 04:47:43;;;;;;;4.17;4.00;;;17.90;99.90;;;;;;4971292;28;20263;-53
2023/09/17 04:50:12;;;;;;;4.67;4.47;;;17.90;99.90;;;;;;4973958;28;20684;-53
2023/09/17 04:52:39;;;;;;;4.20;3.80;;;17.90;99.90;;;;;;4977230;28;20225;-53
2023/09/17 04:55:08;;;;;;;4.23;3.93;;;17.90;99.90;;;;;;4972293;28;20270;-52
2023/09/17 04:57:35;;;;;;;4.57;4.27;;;17.90;99.90;;;;;;4972408;28;20263;-52
2023/09/17 05:00:10;;;;;;;3.90;3.63;;;17.80;99.90;;;;;;4972370;28;20228;-53
2023/09/17 05:02:37;;;;;;;3.67;3.50;;;17.80;99.90;;;;;;4965219;28;20306;-53
2023/09/17 05:05:07;;;;;;;4.43;4.17;;;17.80;99.90;;;;;;4972078;28;20627;-53
2023/09/17 05:07:34;;;;;;;3.77;3.57;;;17.80;99.90;;;;;;4972411;28;20872;-52
2023/09/17 05:10:01;;;;;;;3.77;3.50;;;17.70;99.90;;;;;;4969633;28;20600;-53
2023/09/17 05:12:30;;;;;;;5.70;5.10;;;17.70;99.90;;;;;;4972118;28;20266;-53
2023/09/17 05:14:56;;;;;;;8.40;4.53;;;17.80;99.90;;;;;;4972457;28;20278;-52
2023/09/17 05:17:23;;;;;;;6.87;6.37;;;17.80;99.90;;;;;;4979834;28;20204;-53
2023/09/17 05:19:50;;;;;;;6.70;6.13;;;17.90;99.90;;;;;;4972154;28;20204;-53
2023/09/17 05:22:17;;;;;;;8.10;7.40;;;18.00;99.90;;;;;;4970517;28;20228;-53
2023/09/17 05:24:44;;;;;;;9.17;8.43;;;18.00;99.90;;;;;;4968954;28;20205;-53
2023/09/17 05:27:11;;;;;;;8.23;7.53;;;18.10;99.90;;;;;;4969113;28;20209;-53
2023/09/17 05:29:40;;;;;;;7.93;7.33;;;18.00;99.90;;;;;;4970038;28;20267;-52
2023/09/17 05:32:07;;;;;;;8.53;7.93;;;18.10;99.90;;;;;;4971881;28;20239;-53
2023/09/17 05:34:34;;;;;;;8.70;7.97;;;18.10;99.90;;;;;;4971705;28;20208;-53
2023/09/17 05:37:01;;;;;;;8.53;7.73;;;18.10;99.90;;;;;;4974866;28;20246;-53
2023/09/17 05:39:28;;;;;;;8.37;7.57;;;18.20;99.90;;;;;;4971841;28;20235;-52
2023/09/17 05:41:55;;;;;;;9.50;8.60;;;18.30;99.90;;;;;;4969866;28;20255;-53
2023/09/17 05:44:25;;;;;;;8.80;8.20;;;18.30;99.90;;;;;;4971928;28;20280;-53
2023/09/17 05:49:23;;;;;;;10.30;9.40;;;18.40;99.90;;;;;;4976594;28;20216;-57
2023/09/17 05:51:50;;;;;;;10.23;9.53;;;18.50;99.90;;;;;;4974201;28;20267;-56
2023/09/17 05:54:17;;;;;;;10.13;9.27;;;18.60;99.90;;;;;;4970908;28;20204;-56
2023/09/17 05:56:44;;;;;;;9.67;8.97;;;18.70;99.90;;;;;;4970367;28;20279;-56
2023/09/17 05:59:11;;;;;;;9.13;8.40;;;18.80;99.90;;;;;;4974790;28;20591;-56
2023/09/17 06:01:38;;;;;;;10.00;9.20;;;18.80;99.90;;;;;;4971065;28;20220;-56
2023/09/17 06:04:05;;;;;;;8.70;8.10;;;18.80;99.90;;;;;;4971394;28;20200;-56
2023/09/17 06:06:34;;;;;;;9.77;8.93;;;18.80;99.90;;;;;;4968109;28;20205;-56
2023/09/17 06:09:01;;;;;;;9.90;8.90;;;18.90;99.90;;;;;;4978698;28;20245;-58
2023/09/17 06:11:28;;;;;;;9.53;8.67;;;18.80;99.90;;;;;;4975348;28;20201;-56
2023/09/17 06:13:55;;;;;;;10.00;9.10;;;18.90;99.90;;;;;;4970151;28;20208;-56
2023/09/17 06:16:22;;;;;;;9.50;8.87;;;18.90;99.90;;;;;;4967154;28;20576;-55
2023/09/17 06:18:49;;;;;;;7.83;7.13;;;18.90;99.90;;;;;;4971352;28;20217;-56
2023/09/17 06:21:16;;;;;;;8.40;7.67;;;19.00;99.90;;;;;;4962262;28;20778;-56
2023/09/17 06:23:45;;;;;;;11.40;9.53;;;19.00;99.90;;;;;;4970046;28;20299;-56
2023/09/17 06:26:12;;;;;;;8.33;7.63;;;18.90;99.90;;;;;;4968910;28;20200;-56
2023/09/17 06:28:39;;;;;;;7.90;7.17;;;19.00;99.90;;;;;;4970009;28;20352;-56
2023/09/17 06:31:06;;;;;;;8.13;7.43;;;19.00;99.90;;;;;;4969062;28;20201;-56
2023/09/17 06:33:34;;;;;;;7.23;6.67;;;19.10;99.90;;;;;;4962184;28;20197;-56
2023/09/17 06:36:01;;;;;;;7.03;6.63;;;19.20;99.90;;;;;;4968919;28;20596;-56
2023/09/17 06:38:28;;;;;;;6.23;5.83;;;19.30;99.90;;;;;;4962216;28;20271;-56
2023/09/17 06:40:56;;;;;;;6.20;5.83;;;19.40;99.90;;;;;;4968969;28;20221;-55
2023/09/17 06:43:23;;;;;;;6.87;6.13;;;19.60;99.90;;;;;;4970542;28;20208;-56
2023/09/17 06:45:51;;;;;;;6.17;5.70;;;19.70;99.90;;;;;;4971928;28;20645;-56
2023/09/17 06:48:18;;;;;;;5.77;5.37;;;19.80;99.90;;;;;;4973034;28;20320;-56
2023/09/17 06:50:45;;;;;;;5.90;5.33;;;20.00;99.90;;;;;;4974541;28;20201;-56
2023/09/17 06:53:12;;;;;;;5.30;4.87;;;20.10;99.90;;;;;;4973645;28;20267;-56
2023/09/17 06:55:39;;;;;;;4.93;4.73;;;20.20;99.90;;;;;;4969738;28;20259;-56
2023/09/17 06:58:07;;;;;;;4.00;3.70;;;20.30;99.90;;;;;;4974047;28;20229;-56
2023/09/17 07:00:34;;;;;;;4.27;3.97;;;20.30;99.90;;;;;;4972788;28;20246;-56
2023/09/17 07:03:01;;;;;;;3.43;3.23;;;20.40;99.90;;;;;;4971044;28;20196;-57
2023/09/17 07:05:28;;;;;;;3.53;3.33;;;20.40;99.90;;;;;;4963202;28;20221;-56
2023/09/17 07:07:55;;;;;;;4.20;3.63;;;20.50;99.90;;;;;;4970645;28;20221;-56
2023/09/17 07:10:22;;;;;;;4.87;4.50;;;20.50;99.90;;;;;;4973706;28;20615;-56
2023/09/17 07:12:49;;;;;;;4.50;4.20;;;20.60;99.90;;;;;;4973370;28;20200;-56
2023/09/17 07:15:20;;;;;;;3.87;3.67;;;20.60;99.90;;;;;;4971999;28;20279;-56
2023/09/17 07:17:47;;;;;;;4.20;3.90;;;20.70;99.90;;;;;;4968439;28;20252;-56
2023/09/17 07:20:14;;;;;;;4.00;3.53;;;20.90;99.90;;;;;;4970868;28;20200;-56
2023/09/17 07:22:41;;;;;;;3.23;2.93;;;21.00;99.90;;;;;;4968520;28;20268;-56
2023/09/17 07:25:09;;;;;;;3.70;3.50;;;21.00;99.90;;;;;;4971954;28;20201;-56
2023/09/17 07:27:36;;;;;;;4.00;3.70;;;21.00;99.90;;;;;;4967989;28;20386;-56
2023/09/17 07:30:05;;;;;;;4.03;3.73;;;21.10;99.90;;;;;;4963857;28;20664;-56
2023/09/17 07:32:33;;;;;;;3.37;3.17;;;21.30;99.90;;;;;;4968841;28;20201;-56
2023/09/17 07:35:01;;;;;;;3.57;3.37;;;21.70;99.90;;;;;;4971334;28;20263;-56
2023/09/17 07:37:28;;;;;;;3.90;3.70;;;22.00;99.90;;;;;;4970136;28;20231;-55
2023/09/17 07:39:57;;;;;;;4.10;3.80;;;22.30;99.90;;;;;;4968969;28;20205;-56
2023/09/17 07:42:24;;;;;;;3.10;2.23;;;22.70;99.90;;;;;;4972273;28;20771;-56
2023/09/17 07:44:51;;;;;;;2.33;2.13;;;23.20;99.90;;;;;;4971949;28;20255;-56
2023/09/17 07:47:18;;;;;;;2.57;2.00;;;23.70;99.90;;;;;;4971371;28;20731;-56
2023/09/17 07:49:46;;;;;;;2.33;2.13;;;24.30;99.90;;;;;;4971782;28;20235;-56
2023/09/17 07:52:13;;;;;;;1.70;1.67;;;24.50;99.90;;;;;;4971852;28;20197;-56
2023/09/17 07:54:43;;;;;;;2.30;2.10;;;24.70;99.90;;;;;;4971747;28;20358;-56
2023/09/17 07:57:12;;;;;;;1.93;1.60;;;24.80;99.90;;;;;;4967281;28;20215;-56
2023/09/17 07:59:39;;;;;;;1.90;1.80;;;25.00;99.90;;;;;;4958176;28;20205;-56
2023/09/17 08:02:07;;;;;;;2.53;2.30;;;25.30;99.90;;;;;;4968695;28;20635;-55
2023/09/17 08:04:34;;;;;;;1.30;1.30;;;25.40;99.90;;;;;;4967044;28;20201;-56
2023/09/17 08:07:03;;;;;;;2.10;1.90;;;25.60;99.90;;;;;;4970963;28;20275;-56
2023/09/17 08:09:30;;;;;;;1.73;1.70;;;25.90;99.90;;;;;;4971545;28;20285;-55
2023/09/17 08:11:57;;;;;;;1.42;1.20;;;26.30;99.90;;;;;;4971299;28;20208;-56
2023/09/17 08:14:25;;;;;;;2.20;1.80;;;26.50;99.90;;;;;;4966642;28;20197;-56
2023/09/17 08:16:53;;;;;;;2.45;1.50;;;26.40;99.90;;;;;;4964762;28;20247;-56
2023/09/17 08:19:22;;;;;;;2.35;1.45;;;26.40;99.90;;;;;;4967904;28;20771;-56
2023/09/17 08:21:49;;;;;;;3.57;1.67;;;26.90;99.90;;;;;;4967374;28;20217;-56
2023/09/17 08:24:20;;;;;;;3.00;1.60;;;27.00;99.90;;;;;;4970942;28;20200;-56
2023/09/17 08:26:47;;;;;;;2.15;1.02;;;27.20;99.90;;;;;;4974434;28;20667;-56
2023/09/17 08:29:14;;;;;;;2.15;1.17;;;27.50;99.90;;;;;;4971332;28;20221;-56
2023/09/17 08:31:41;;;;;;;1.42;1.30;;;27.20;99.90;;;;;;4971173;28;20197;-56
2023/09/17 08:34:08;;;;;;;2.85;1.70;;;27.20;99.90;;;;;;4970024;28;20263;-57
2023/09/17 08:36:38;;;;;;;1.50;1.40;;;27.40;99.90;;;;;;4965862;28;20235;-56
2023/09/17 08:39:07;;;;;;;2.63;1.15;;;27.60;99.90;;;;;;4966445;28;20224;-56
2023/09/17 08:41:36;;;;;;;1.38;1.27;;;28.30;99.90;;;;;;4969707;28;20591;-56
2023/09/17 08:44:04;;;;;;;1.58;1.08;;;28.60;99.90;;;;;;4965996;28;20229;-56
2023/09/17 08:46:32;;;;;;;2.00;1.02;;;29.00;99.90;;;;;;4967636;28;20380;-57
2023/09/17 08:49:00;;;;;;;3.38;1.92;;;29.80;99.90;;;;;;4963234;28;20228;-55
2023/09/17 08:51:32;;;;;;;2.20;1.30;;;30.50;99.90;;;;;;4970774;28;20193;-56
2023/09/17 08:54:06;;;;;;;1.75;1.15;;;30.80;99.90;;;;;;4968203;28;20197;-57
2023/09/17 08:56:38;;;;;;;1.50;1.40;;;31.10;99.90;;;;;;4966456;28;20199;-56
2023/09/17 08:59:10;;;;;;;1.50;1.20;;;31.00;99.90;;;;;;4970581;28;20220;-56
2023/09/17 09:01:39;;;;;;;1.95;1.58;;;30.90;99.90;;;;;;4971712;28;20274;-56
2023/09/17 09:04:09;;;;;;;1.85;1.42;;;31.10;99.90;;;;;;4960923;28;20209;-56
2023/09/17 09:06:36;;;;;;;1.20;0.88;;;31.40;99.90;;;;;;4966823;28;20207;-57
2023/09/17 09:09:05;;;;;;;1.93;1.27;;;31.70;99.90;;;;;;4958750;28;20550;-57
2023/09/17 09:11:34;;;;;;;2.33;2.20;;;31.20;99.90;;;;;;4964295;28;20462;-62
2023/09/17 09:14:04;;;;;;;1.02;0.88;;;31.70;99.90;;;;;;4969698;28;20200;-62
2023/09/17 09:16:33;;;;;;;1.50;1.50;;;31.70;99.90;;;;;;4964422;28;20684;-62
2023/09/17 09:19:01;;;;;;;2.28;1.10;;;32.10;99.90;;;;;;4966695;28;20302;-64
2023/09/17 09:21:29;;;;;;;1.02;0.93;;;32.30;99.90;;;;;;4966133;28;20223;-63
2023/09/17 09:23:57;;;;;;;1.45;1.42;;;32.30;99.90;;;;;;4965110;28;20260;-63
2023/09/17 09:26:33;;;;;;;1.77;1.38;;;32.00;99.90;;;;;;4962899;28;21028;-57
2023/09/17 09:29:00;;;;;;;1.98;1.33;;;31.70;99.90;;;;;;4965215;28;20304;-56
2023/09/17 09:31:30;;;;;;;2.55;1.45;;;31.70;99.90;;;;;;4970175;28;20216;-57
2023/09/17 09:33:59;;;;;;;1.60;1.50;;;31.60;99.90;;;;;;4965381;28;20216;-57
2023/09/17 09:36:28;;;;;;;3.47;1.33;;;31.70;99.90;;;;;;4962144;28;20573;-56
2023/09/17 09:38:56;;;;;;;1.40;1.40;;;31.70;99.90;;;;;;4970108;28;20315;-57
2023/09/17 09:41:23;;;;;;;2.33;1.48;;;32.10;99.90;;;;;;4969409;28;20731;-57
2023/09/17 09:43:50;;;;;;;2.28;2.05;;;32.00;99.90;;;;;;4969739;28;20207;-56
2023/09/17 09:46:17;;;;;;;1.55;1.45;;;32.10;99.90;;;;;;4970486;28;20697;-56
2023/09/17 09:48:47;;;;;;;1.38;1.38;;;32.10;99.90;;;;;;4965269;28;20331;-56
2023/09/17 09:51:16;;;;;;;1.60;1.60;;;32.20;99.90;;;;;;4966493;28;20296;-57
2023/09/17 09:53:43;;;;;;;3.00;1.33;;;32.20;99.90;;;;;;4970534;28;20251;-56
2023/09/17 09:56:11;;;;;;;2.55;1.60;;;32.10;99.90;;;;;;4966800;28;20625;-56
2023/09/17 09:58:39;;;;;;;1.15;1.00;;;32.10;99.90;;;;;;4970082;28;20281;-57
2023/09/17 10:01:06;;;;;;;1.38;0.90;;;32.30;99.90;;;;;;4969875;28;20200;-56
2023/09/17 10:03:34;;;;;;;1.30;1.25;;;32.30;99.90;;;;;;4970512;28;20275;-56
2023/09/17 10:06:06;;;;;;;1.77;1.63;;;31.80;99.90;;;;;;4967731;28;20292;-57
2023/09/17 10:08:36;;;;;;;3.20;1.45;;;32.00;99.90;;;;;;4962452;28;20221;-57
2023/09/17 10:11:05;;;;;;;1.00;1.00;;;31.80;99.90;;;;;;4959978;28;20205;-57
2023/09/17 10:13:33;;;;;;;1.55;1.00;;;31.70;99.90;;;;;;4969200;28;20303;-57
2023/09/17 10:16:02;;;;;;;2.95;1.35;;;31.80;99.90;;;;;;4967598;28;20311;-57
2023/09/17 10:18:31;;;;;;;1.42;1.33;;;31.90;99.90;;;;;;4969510;28;20303;-57
2023/09/17 10:20:59;;;;;;;1.02;1.02;;;32.40;99.90;;;;;;4974584;28;20200;-55
2023/09/17 10:23:29;;;;;;;1.27;1.27;;;32.50;99.90;;;;;;4974449;28;20759;-55
2023/09/17 10:25:59;;;;;;;3.40;1.45;;;32.60;99.90;;;;;;4973828;28;20200;-55
2023/09/17 10:28:27;;;;;;;1.10;1.10;;;32.50;99.90;;;;;;4970566;28;20704;-63
2023/09/17 10:30:55;;;;;;;2.47;1.42;;;32.30;99.90;;;;;;4970980;28;20680;-65
2023/09/17 10:33:24;;;;;;;1.95;1.20;;;32.10;99.90;;;;;;4972902;28;20239;-63
2023/09/17 10:35:53;;;;;;;1.35;1.25;;;32.00;99.90;;;;;;4971507;28;20590;-56
2023/09/17 10:38:24;;;;;;;2.58;1.63;;;32.00;99.90;;;;;;4982686;28;20247;-57
2023/09/17 10:40:54;;;;;;;2.60;1.23;;;31.90;99.90;;;;;;4986641;28;20283;-57
2023/09/17 10:43:23;;;;;;;1.60;1.50;;;31.60;99.90;;;;;;4981866;28;20223;-56
2023/09/17 10:45:52;;;;;;;3.00;1.25;;;31.40;99.90;;;;;;4984664;28;20598;-58
2023/09/17 10:48:21;;;;;;;0.95;0.93;;;31.10;99.90;;;;;;4979007;28;20236;-58
2023/09/17 10:50:49;;;;;;;2.70;1.00;;;30.80;99.90;;;;;;4979847;28;20267;-63
2023/09/17 10:53:16;;;;;;;1.17;1.08;;;30.50;99.90;;;;;;4979261;28;20382;-64
2023/09/17 10:55:49;;;;;;;3.65;1.83;;;30.20;99.90;;;;;;4987123;28;20204;-64
2023/09/17 10:58:21;;;;;;;2.00;1.38;;;30.20;99.90;;;;;;4993663;28;20224;-63
2023/09/17 11:00:50;;;;;;;1.30;0.90;;;30.30;99.90;;;;;;4984298;28;20335;-63
2023/09/17 11:03:24;;;;;;;2.40;1.88;;;30.30;99.90;;;;;;4972519;28;20256;-63
2023/09/17 11:05:53;;;;;;;3.72;1.13;;;30.10;99.90;;;;;;4975455;28;20211;-63
2023/09/17 11:08:21;;;;;;;1.10;1.10;;;29.80;99.90;;;;;;4990067;28;20274;-61
2023/09/17 11:10:48;;;;;;;1.95;1.20;;;29.60;99.90;;;;;;4966233;28;20271;-63
2023/09/17 11:13:16;;;;;;;1.83;1.27;;;29.60;99.90;;;;;;4974409;28;20201;-65
2023/09/17 11:15:44;;;;;;;1.17;1.08;;;29.60;99.90;;;;;;4970655;28;20201;-63
2023/09/17 11:18:11;;;;;;;1.35;1.27;;;29.50;99.90;;;;;;4967722;28;20229;-63
2023/09/17 11:20:59;;;;;;;1.27;1.02;;;29.50;99.90;;;;;;4968999;28;20283;-63
2023/09/17 11:23:42;;;;;;;2.92;1.10;;;29.40;99.90;;;;;;4960319;28;20347;-62
2023/09/17 11:26:10;;;;;;;0.85;0.85;;;29.40;99.90;;;;;;4971692;28;20556;-62
2023/09/17 11:28:40;;;;;;;1.55;0.90;;;29.40;99.90;;;;;;4973658;28;20228;-62
2023/09/17 11:31:09;;;;;;;0.60;0.60;;;29.40;99.90;;;;;;4972251;28;20204;-62
2023/09/17 11:33:38;;;;;;;0.70;0.70;;;29.30;99.90;;;;;;4965589;28;20287;-64
2023/09/17 11:36:07;;;;;;;0.70;0.70;;;29.30;99.90;;;;;;4964263;28;20628;-63
2023/09/17 11:38:34;;;;;;;0.70;0.70;;;29.30;99.90;;;;;;4971665;28;20603;-59
2023/09/17 11:41:06;;;;;;;1.85;0.60;;;29.20;99.90;;;;;;4968160;28;20252;-65
2023/09/17 11:43:36;;;;;;;1.95;0.90;;;29.10;99.90;;;;;;4964507;28;20649;-65
2023/09/17 11:46:08;;;;;;;0.82;0.70;;;29.00;99.90;;;;;;4971046;28;20200;-65
2023/09/17 11:48:36;;;;;;;0.80;0.70;;;28.90;99.90;;;;;;4964969;28;20640;-66
2023/09/17 11:51:24;;;;;;;1.65;0.52;;;28.80;99.90;;;;;;4972208;28;20571;-65
2023/09/17 11:54:01;;;;;;;0.63;0.63;;;28.60;99.90;;;;;;5028674;22;20224;-61
2023/09/17 11:56:29;;;;;;;0.80;0.80;;;28.70;99.90;;;;;;4990223;28;20254;-61
2023/09/17 11:59:05;;;;;;;1.23;0.50;;;28.70;99.90;;;;;;4991871;28;20200;-62
2023/09/17 12:01:41;;;;;;;1.60;1.02;;;28.80;99.90;;;;;;4993852;28;20628;-62
2023/09/17 12:04:10;;;;;;;1.30;0.70;;;28.70;99.90;;;;;;4992846;28;20223;-62
2023/09/17 12:06:39;;;;;;;1.00;0.60;;;28.70;99.90;;;;;;4992461;28;20212;-61
2023/09/17 12:09:15;;;;;;;0.77;0.77;;;28.60;99.90;;;;;;4991036;28;20208;-62
2023/09/17 12:11:43;;;;;;;0.50;0.50;;;28.60;99.90;;;;;;4991537;28;20206;-61
2023/09/17 12:14:11;;;;;;;0.88;0.60;;;28.60;99.90;;;;;;4991294;28;20657;-61
2023/09/17 12:16:40;;;;;;;2.40;0.82;;;28.70;99.90;;;;;;4992111;28;20256;-62
2023/09/17 12:19:07;;;;;;;0.60;0.60;;;28.60;99.90;;;;;;4992738;28;20196;-62
2023/09/17 12:21:39;;;;;;;0.50;0.50;;;28.60;99.90;;;;;;4982848;28;20208;-61
2023/09/17 12:24:08;;;;;;;0.40;0.40;;;28.60;99.90;;;;;;4991596;28;20255;-62
2023/09/17 12:26:46;;;;;;;2.13;0.80;;;28.60;99.90;;;;;;4984315;28;20208;-61
2023/09/17 12:29:13;;;;;;;1.50;0.60;;;28.70;99.90;;;;;;4992375;28;20239;-61
2023/09/17 12:31:42;;;;;;;1.50;0.60;;;28.70;99.90;;;;;;4990245;28;20199;-61
2023/09/17 12:34:09;;;;;;;1.80;0.70;;;28.80;99.90;;;;;;4991180;28;20837;-61
2023/09/17 12:36:36;;;;;;;1.02;0.63;;;28.80;99.90;;;;;;4992133;28;20200;-60
2023/09/17 12:39:04;;;;;;;0.47;0.47;;;28.90;99.90;;;;;;4992536;28;20208;-62
2023/09/17 12:41:31;;;;;;;0.47;0.35;;;28.90;99.90;;;;;;4985807;28;20196;-62
2023/09/17 12:43:58;;;;;;;2.22;0.65;;;28.80;99.90;;;;;;4990947;28;20301;-60
2023/09/17 12:46:26;;;;;;;1.00;0.82;;;28.70;99.90;;;;;;4990809;28;20290;-61
2023/09/17 12:48:55;;;;;;;1.08;0.70;;;28.70;99.90;;;;;;4990873;28;20208;-61
2023/09/17 12:51:22;;;;;;;0.65;0.65;;;28.70;99.90;;;;;;4987536;28;20204;-60
2023/09/17 12:53:49;;;;;;;1.13;0.70;;;28.60;99.70;;;;;;4990155;28;20282;-60